createdAt,value
2019-01-20T00:01:11.480Z,38.60
2019-01-20T00:03:39.927Z,38.49
2019-01-20T00:06:08.383Z,38.51
2019-01-20T00:08:36.752Z,38.71
2019-01-20T00:11:05.680Z,38.70
2019-01-20T00:13:34.120Z,38.65
2019-01-20T00:16:02.741Z,38.64
2019-01-20T00:18:31.353Z,38.62
2019-01-20T00:20:59.736Z,38.43
2019-01-20T00:23:28.179Z,38.74
2019-01-20T00:25:56.557Z,38.69
2019-01-20T00:28:24.927Z,38.58
2019-01-20T00:30:53.315Z,38.69
2019-01-20T00:33:21.682Z,38.72
2019-01-20T00:35:50.141Z,38.81
2019-01-20T00:38:18.514Z,38.74
2019-01-20T00:40:46.898Z,38.71
2019-01-20T00:43:15.272Z,38.91
2019-01-20T00:45:43.661Z,38.78
2019-01-20T00:48:12.200Z,37.88
2019-01-20T00:50:40.580Z,38.76
2019-01-20T00:53:08.956Z,38.50
2019-01-20T00:55:37.318Z,38.60
2019-01-20T00:58:05.775Z,38.54
2019-01-20T01:00:34.504Z,38.77
2019-01-20T01:03:02.945Z,38.32
2019-01-20T01:05:31.756Z,38.37
2019-01-20T01:08:00.387Z,38.20
2019-01-20T01:10:28.927Z,38.26
2019-01-20T01:12:57.856Z,37.63
2019-01-20T01:15:26.229Z,38.09
2019-01-20T01:17:54.609Z,38.29
2019-01-20T01:20:22.984Z,38.79
2019-01-20T01:22:51.372Z,38.96
2019-01-20T01:25:19.741Z,39.08
2019-01-20T01:27:48.196Z,38.86
2019-01-20T01:30:19.448Z,39.21
2019-01-20T01:32:47.907Z,38.99
2019-01-20T01:35:16.340Z,39.11
2019-01-20T01:37:44.730Z,39.00
2019-01-20T01:40:15.244Z,39.11
2019-01-20T01:42:43.703Z,39.05
2019-01-20T01:45:14.912Z,39.08
2019-01-20T01:47:43.369Z,38.92
2019-01-20T01:50:12.784Z,39.08
2019-01-20T01:52:41.302Z,39.08
2019-01-20T01:55:10.915Z,39.06
2019-01-20T01:57:39.299Z,39.06
2019-01-20T02:00:14.176Z,39.14
2019-01-20T02:02:42.629Z,39.29
2019-01-20T02:05:11.073Z,39.16
2019-01-20T02:07:39.461Z,39.33
2019-01-20T02:10:11.212Z,38.93
2019-01-20T02:12:39.601Z,39.23
2019-01-20T02:15:10.512Z,39.27
2019-01-20T02:17:38.968Z,38.61
2019-01-20T02:20:10.469Z,38.87
2019-01-20T02:22:38.996Z,39.23
2019-01-20T02:25:07.496Z,39.28
2019-01-20T02:27:35.924Z,38.59
2019-01-20T02:30:07.346Z,39.09
2019-01-20T02:32:35.876Z,39.25
2019-01-20T02:35:05.575Z,38.99
2019-01-20T02:37:33.944Z,39.39
2019-01-20T02:40:02.480Z,39.48
2019-01-20T02:42:31.971Z,39.43
2019-01-20T02:45:00.470Z,39.65
2019-01-20T02:47:28.841Z,39.75
2019-01-20T02:49:57.227Z,39.12
2019-01-20T02:52:25.602Z,40.00
2019-01-20T02:54:53.983Z,40.10
2019-01-20T02:57:22.358Z,40.10
2019-01-20T02:59:50.745Z,40.11
2019-01-20T03:02:19.120Z,40.12
2019-01-20T03:04:47.493Z,40.02
2019-01-20T03:07:15.864Z,39.93
2019-01-20T03:09:44.248Z,40.15
2019-01-20T03:12:12.622Z,40.38
2019-01-20T03:14:40.997Z,40.28
2019-01-20T03:17:09.378Z,40.39
2019-01-20T03:19:37.743Z,40.57
2019-01-20T03:22:06.494Z,40.31
2019-01-20T03:24:34.859Z,40.49
2019-01-20T03:27:03.234Z,40.36
2019-01-20T03:29:31.605Z,40.31
2019-01-20T03:32:00.001Z,40.34
2019-01-20T03:34:28.352Z,40.25
2019-01-20T03:36:56.733Z,40.60
2019-01-20T03:39:25.104Z,40.37
2019-01-20T03:41:53.485Z,40.49
2019-01-20T03:44:21.859Z,40.53
2019-01-20T03:46:50.235Z,40.05
2019-01-20T03:49:18.611Z,40.06
2019-01-20T03:51:46.990Z,40.69
2019-01-20T03:54:15.528Z,40.40
2019-01-20T03:56:43.909Z,40.81
2019-01-20T03:59:12.282Z,40.18
2019-01-20T04:01:40.656Z,40.56
2019-01-20T04:04:09.081Z,40.86
2019-01-20T04:06:37.407Z,40.81
2019-01-20T04:09:07.290Z,40.95
2019-01-20T04:11:35.839Z,41.16
2019-01-20T04:14:04.441Z,40.96
2019-01-20T04:16:33.046Z,41.08
2019-01-20T04:19:01.419Z,40.82
2019-01-20T04:21:29.806Z,41.16
2019-01-20T04:23:58.177Z,41.21
2019-01-20T04:26:26.566Z,41.29
2019-01-20T04:28:54.931Z,41.26
2019-01-20T04:31:23.301Z,41.33
2019-01-20T04:33:51.696Z,41.24
2019-01-20T04:36:20.059Z,41.17
2019-01-20T04:38:48.434Z,41.15
2019-01-20T04:41:16.808Z,40.95
2019-01-20T04:43:45.194Z,41.22
2019-01-20T04:46:13.591Z,41.06
2019-01-20T04:48:41.937Z,41.07
2019-01-20T04:51:10.366Z,41.11
2019-01-20T04:53:39.113Z,40.61
2019-01-20T04:56:07.487Z,41.07
2019-01-20T04:58:35.871Z,41.12
2019-01-20T05:01:04.408Z,41.28
2019-01-20T05:03:33.380Z,41.29
2019-01-20T05:06:01.745Z,41.20
2019-01-20T05:08:30.125Z,41.17
2019-01-20T05:10:58.498Z,41.48
2019-01-20T05:13:26.962Z,41.39
2019-01-20T05:15:55.326Z,41.57
2019-01-20T05:18:23.702Z,41.43
2019-01-20T05:20:52.066Z,41.36
2019-01-20T05:23:20.441Z,41.45
2019-01-20T05:25:48.816Z,41.60
2019-01-20T05:28:17.195Z,41.49
2019-01-20T05:30:45.558Z,41.57
2019-01-20T05:33:13.940Z,41.61
2019-01-20T05:35:42.302Z,41.54
2019-01-20T05:38:10.683Z,41.13
2019-01-20T05:40:39.050Z,41.52
2019-01-20T05:43:07.431Z,41.52
2019-01-20T05:45:35.805Z,41.49
2019-01-20T05:48:04.169Z,41.17
2019-01-20T05:50:32.551Z,41.58
2019-01-20T05:53:00.914Z,41.48
2019-01-20T05:55:29.305Z,41.58
2019-01-20T05:57:57.673Z,41.51
2019-01-20T06:00:28.258Z,41.72
2019-01-20T06:02:56.625Z,41.80
2019-01-20T06:05:25.004Z,41.99
2019-01-20T06:07:53.445Z,41.70
2019-01-20T06:10:21.820Z,41.57
2019-01-20T06:12:54.210Z,41.83
2019-01-20T06:15:21.867Z,42.28
2019-01-20T06:17:50.235Z,41.64
2019-01-20T06:20:18.855Z,41.46
2019-01-20T06:22:47.226Z,41.71
2019-01-20T06:25:15.601Z,41.95
2019-01-20T06:27:43.982Z,41.77
2019-01-20T06:30:15.583Z,41.94
2019-01-20T06:32:43.948Z,42.04
2019-01-20T06:35:12.331Z,41.83
2019-01-20T06:37:40.702Z,42.00
2019-01-20T06:40:09.921Z,42.01
2019-01-20T06:42:38.296Z,41.87
2019-01-20T06:45:09.511Z,41.81
2019-01-20T06:47:37.877Z,41.81
2019-01-20T06:50:14.718Z,41.65
2019-01-20T06:52:43.081Z,41.57
2019-01-20T06:55:12.599Z,41.59
2019-01-20T06:57:41.036Z,41.33
2019-01-20T07:00:24.823Z,41.60
2019-01-20T07:02:53.193Z,41.37
2019-01-20T07:05:21.647Z,41.28
2019-01-20T07:07:50.253Z,41.52
2019-01-20T07:10:19.176Z,41.48
2019-01-20T07:12:47.548Z,41.59
2019-01-20T07:15:20.542Z,41.41
2019-01-20T07:17:48.917Z,41.37
2019-01-20T07:20:17.636Z,41.38
2019-01-20T07:22:46.009Z,41.52
2019-01-20T07:25:14.481Z,41.49
2019-01-20T07:27:42.854Z,41.56
2019-01-20T07:30:13.961Z,41.20
2019-01-20T07:32:43.332Z,41.40
2019-01-20T07:35:12.446Z,41.62
2019-01-20T07:37:40.827Z,41.27
2019-01-20T07:40:12.383Z,41.29
2019-01-20T07:42:40.772Z,41.20
2019-01-20T07:45:11.478Z,41.21
2019-01-20T07:47:39.920Z,41.77
2019-01-20T07:50:11.698Z,41.22
2019-01-20T07:52:40.084Z,41.26
2019-01-20T07:55:09.700Z,41.45
2019-01-20T07:57:38.131Z,41.68
2019-01-20T08:00:23.840Z,41.29
2019-01-20T08:02:52.219Z,41.42
2019-01-20T08:05:21.133Z,41.65
2019-01-20T08:07:49.661Z,41.55
2019-01-20T08:10:20.812Z,41.53
2019-01-20T08:12:49.195Z,41.52
2019-01-20T08:15:18.227Z,41.52
2019-01-20T08:17:46.603Z,41.63
2019-01-20T08:20:20.320Z,41.87
2019-01-20T08:22:48.873Z,41.82
2019-01-20T08:25:18.781Z,41.72
2019-01-20T08:27:47.329Z,41.66
2019-01-20T08:30:20.773Z,41.94
2019-01-20T08:32:49.150Z,41.90
2019-01-20T08:35:17.675Z,42.00
2019-01-20T08:37:46.056Z,41.87
2019-01-20T08:40:16.877Z,42.01
2019-01-20T08:42:45.269Z,42.19
2019-01-20T08:45:22.689Z,41.83
2019-01-20T08:47:53.014Z,42.10
2019-01-20T08:50:21.384Z,42.31
2019-01-20T08:52:49.764Z,42.11
2019-01-20T08:55:18.128Z,42.16
2019-01-20T08:57:46.517Z,42.26
2019-01-20T09:00:16.437Z,42.56
2019-01-20T09:02:44.887Z,43.41
2019-01-20T09:05:13.898Z,44.60
2019-01-20T09:07:42.279Z,47.06
2019-01-20T09:10:13.701Z,45.11
2019-01-20T09:12:42.360Z,46.05
2019-01-20T09:15:10.735Z,45.22
2019-01-20T09:17:39.101Z,45.85
2019-01-20T09:20:11.403Z,46.16
2019-01-20T09:22:39.772Z,44.74
2019-01-20T09:25:10.999Z,44.55
2019-01-20T09:27:39.436Z,44.63
2019-01-20T09:30:14.385Z,45.89
2019-01-20T09:32:42.752Z,46.27
2019-01-20T09:35:11.577Z,45.45
2019-01-20T09:37:39.943Z,45.51
2019-01-20T09:40:11.513Z,46.19
2019-01-20T09:42:39.888Z,45.40
2019-01-20T09:45:13.819Z,45.72
2019-01-20T09:47:42.191Z,46.80
2019-01-20T09:50:10.710Z,44.68
2019-01-20T09:52:39.084Z,44.24
2019-01-20T09:55:10.510Z,44.15
2019-01-20T09:57:38.947Z,43.93
2019-01-20T10:00:12.968Z,43.95
2019-01-20T10:02:41.340Z,43.90
2019-01-20T10:05:10.558Z,43.52
2019-01-20T10:07:38.934Z,43.57
2019-01-20T10:10:10.623Z,43.30
2019-01-20T10:12:38.994Z,43.13
2019-01-20T10:15:10.220Z,42.99
2019-01-20T10:17:38.895Z,43.02
2019-01-20T10:20:13.378Z,42.51
2019-01-20T10:22:41.741Z,42.21
2019-01-20T10:25:15.082Z,42.55
2019-01-20T10:27:40.220Z,42.20
2019-01-20T10:30:14.825Z,42.33
2019-01-20T10:32:47.915Z,41.91
2019-01-20T10:35:13.629Z,41.88
2019-01-20T10:37:42.068Z,41.54
2019-01-20T10:40:10.520Z,41.68
2019-01-20T10:42:39.084Z,41.69
2019-01-20T10:45:09.708Z,41.82
2019-01-20T10:47:39.101Z,41.63
2019-01-20T10:50:13.520Z,41.84
2019-01-20T10:52:41.891Z,41.88
2019-01-20T10:55:10.258Z,41.89
2019-01-20T10:57:39.195Z,41.71
2019-01-20T11:00:19.532Z,41.69
2019-01-20T11:02:47.891Z,41.54
2019-01-20T11:05:16.500Z,41.60
2019-01-20T11:07:44.866Z,41.29
2019-01-20T11:10:13.379Z,41.31
2019-01-20T11:12:41.769Z,41.29
2019-01-20T11:15:12.774Z,40.91
2019-01-20T11:17:41.150Z,40.98
2019-01-20T11:20:12.163Z,41.03
2019-01-20T11:22:40.619Z,40.81
2019-01-20T11:25:12.502Z,40.77
2019-01-20T11:27:41.457Z,40.87
2019-01-20T11:30:12.336Z,40.86
2019-01-20T11:32:42.403Z,40.72
2019-01-20T11:35:14.120Z,40.68
2019-01-20T11:37:42.498Z,40.96
2019-01-20T11:40:12.324Z,41.16
2019-01-20T11:42:40.707Z,40.82
2019-01-20T11:45:21.056Z,40.83
2019-01-20T11:47:49.511Z,41.02
2019-01-20T11:50:18.016Z,40.76
2019-01-20T11:52:46.399Z,40.78
2019-01-20T11:55:23.018Z,40.71
2019-01-20T11:57:51.670Z,40.59
2019-01-20T12:00:23.085Z,40.80
2019-01-20T12:02:51.726Z,40.92
2019-01-20T12:05:20.831Z,40.86
2019-01-20T12:07:49.447Z,40.80
2019-01-20T12:10:17.955Z,40.72
2019-01-20T12:12:54.230Z,40.81
2019-01-20T12:15:22.608Z,40.80
2019-01-20T12:17:50.999Z,40.80
2019-01-20T12:20:19.450Z,40.81
2019-01-20T12:22:47.829Z,40.88
2019-01-20T12:25:20.511Z,41.07
2019-01-20T12:27:48.893Z,41.04
2019-01-20T12:30:22.931Z,41.11
2019-01-20T12:32:51.303Z,40.93
2019-01-20T12:35:19.670Z,41.05
2019-01-20T12:37:48.055Z,41.00
2019-01-20T12:40:25.151Z,41.06
2019-01-20T12:42:53.526Z,41.03
2019-01-20T12:45:21.975Z,40.93
2019-01-20T12:47:50.359Z,41.29
2019-01-20T12:50:19.278Z,41.36
2019-01-20T12:52:47.643Z,41.40
2019-01-20T12:55:16.932Z,41.44
2019-01-20T12:57:45.308Z,41.55
2019-01-20T13:00:18.834Z,41.51
2019-01-20T13:02:47.284Z,41.51
2019-01-20T13:05:15.813Z,41.41
2019-01-20T13:07:44.355Z,41.44
2019-01-20T13:10:15.275Z,41.41
2019-01-20T13:12:43.781Z,41.42
2019-01-20T13:15:14.984Z,41.26
2019-01-20T13:17:43.350Z,41.18
2019-01-20T13:20:27.125Z,41.37
2019-01-20T13:22:55.508Z,41.47
2019-01-20T13:25:26.373Z,41.60
2019-01-20T13:27:54.917Z,41.70
2019-01-20T13:30:28.239Z,41.87
2019-01-20T13:32:56.681Z,41.82
2019-01-20T13:35:25.906Z,41.90
2019-01-20T13:37:57.512Z,41.72
2019-01-20T13:40:29.304Z,41.83
2019-01-20T13:42:57.676Z,41.81
2019-01-20T13:45:26.057Z,42.18
2019-01-20T13:47:54.417Z,41.87
2019-01-20T13:50:22.804Z,42.00
2019-01-20T13:52:51.191Z,42.00
2019-01-20T13:55:19.589Z,42.28
2019-01-20T13:57:47.961Z,42.35
2019-01-20T14:00:21.921Z,43.05
2019-01-20T14:02:50.310Z,43.06
2019-01-20T14:05:18.699Z,42.59
2019-01-20T14:07:47.063Z,42.51
2019-01-20T14:10:18.354Z,42.58
2019-01-20T14:12:46.721Z,42.48
2019-01-20T14:15:16.437Z,42.53
2019-01-20T14:17:45.847Z,42.35
2019-01-20T14:20:17.277Z,42.27
2019-01-20T14:22:45.646Z,42.29
2019-01-20T14:25:16.763Z,42.30
2019-01-20T14:27:45.205Z,42.30
2019-01-20T14:30:28.272Z,42.30
2019-01-20T14:32:56.659Z,42.27
2019-01-20T14:35:25.255Z,42.35
2019-01-20T14:37:53.634Z,42.28
2019-01-20T14:40:22.282Z,42.26
2019-01-20T14:42:51.793Z,42.26
2019-01-20T14:45:20.310Z,42.06
2019-01-20T14:47:48.963Z,42.06
2019-01-20T14:50:20.418Z,41.80
2019-01-20T14:52:48.878Z,41.56
2019-01-20T14:55:17.392Z,41.53
2019-01-20T14:57:45.839Z,38.81
2019-01-20T15:00:26.349Z,38.10
2019-01-20T15:02:54.725Z,38.81
2019-01-20T15:05:23.099Z,38.02
2019-01-20T15:07:51.482Z,38.21
2019-01-20T15:10:19.850Z,38.51
2019-01-20T15:12:48.236Z,38.40
2019-01-20T15:15:19.416Z,38.68
2019-01-20T15:17:47.796Z,38.68
2019-01-20T15:20:16.602Z,38.48
2019-01-20T15:22:48.133Z,38.67
2019-01-20T15:25:18.811Z,38.97
2019-01-20T15:27:47.536Z,38.90
2019-01-20T15:30:18.984Z,39.34
2019-01-20T15:32:48.240Z,39.65
2019-01-20T15:35:16.777Z,40.67
2019-01-20T15:37:45.351Z,41.15
2019-01-20T15:40:22.175Z,41.41
2019-01-20T15:42:50.566Z,41.74
2019-01-20T15:45:20.881Z,42.11
2019-01-20T15:47:50.627Z,42.18
2019-01-20T15:50:24.764Z,42.91
2019-01-20T15:52:53.376Z,43.35
2019-01-20T15:55:21.754Z,42.95
2019-01-20T15:57:50.143Z,42.91
2019-01-20T16:00:26.962Z,43.13
2019-01-20T16:02:55.346Z,43.51
2019-01-20T16:05:25.159Z,43.91
2019-01-20T16:07:53.950Z,43.91
2019-01-20T16:10:22.621Z,44.16
2019-01-20T16:12:51.083Z,44.66
2019-01-20T16:15:31.080Z,44.90
2019-01-20T16:17:59.465Z,45.18
2019-01-20T16:20:28.631Z,45.45
2019-01-20T16:22:57.245Z,46.10
2019-01-20T16:25:28.638Z,46.17
2019-01-20T16:27:57.086Z,45.58
2019-01-20T16:30:28.191Z,45.05
2019-01-20T16:32:56.798Z,44.82
2019-01-20T16:35:26.114Z,44.80
2019-01-20T16:37:55.541Z,45.40
2019-01-20T16:40:25.461Z,45.34
2019-01-20T16:42:53.899Z,45.27
2019-01-20T16:45:32.983Z,45.24
2019-01-20T16:47:57.995Z,45.81
2019-01-20T16:50:26.822Z,46.33
2019-01-20T16:52:55.306Z,46.75
2019-01-20T16:55:24.191Z,47.71
2019-01-20T16:57:52.567Z,47.99
2019-01-20T17:00:23.930Z,47.66
2019-01-20T17:02:52.860Z,48.51
2019-01-20T17:05:21.323Z,48.83
2019-01-20T17:07:49.691Z,48.47
2019-01-20T17:10:20.231Z,47.84
2019-01-20T17:12:48.606Z,47.97
2019-01-20T17:15:19.945Z,47.54
2019-01-20T17:17:48.382Z,47.14
2019-01-20T17:20:17.620Z,46.76
2019-01-20T17:22:47.111Z,46.46
2019-01-20T17:25:16.937Z,46.05
2019-01-20T17:27:45.729Z,45.94
2019-01-20T17:30:25.775Z,45.71
2019-01-20T17:32:54.418Z,46.21
2019-01-20T17:35:22.806Z,46.25
2019-01-20T17:37:51.423Z,45.83
2019-01-20T17:40:27.995Z,45.50
2019-01-20T17:42:56.558Z,45.27
2019-01-20T17:45:27.738Z,45.10
2019-01-20T17:47:56.225Z,44.86
2019-01-20T17:50:33.093Z,44.53
2019-01-20T17:53:01.550Z,44.38
2019-01-20T17:55:30.039Z,44.75
2019-01-20T17:57:58.504Z,44.31
2019-01-20T18:00:30.594Z,44.26
2019-01-20T18:02:59.057Z,43.98
2019-01-20T18:05:27.564Z,43.93
2019-01-20T18:07:55.965Z,43.70
2019-01-20T18:10:24.512Z,43.52
2019-01-20T18:12:53.438Z,43.31
2019-01-20T18:15:24.332Z,43.16
2019-01-20T18:17:52.720Z,45.23
2019-01-20T18:20:29.182Z,48.55
2019-01-20T18:22:57.702Z,52.09
2019-01-20T18:25:26.153Z,55.32
2019-01-20T18:27:54.610Z,57.29
2019-01-20T18:30:28.310Z,58.02
2019-01-20T18:32:56.745Z,58.25
2019-01-20T18:35:26.351Z,58.64
2019-01-20T18:37:54.746Z,57.71
2019-01-20T18:40:24.554Z,57.75
2019-01-20T18:42:52.939Z,57.54
2019-01-20T18:45:23.997Z,57.86
2019-01-20T18:47:52.384Z,58.25
2019-01-20T18:50:26.641Z,58.28
2019-01-20T18:52:55.098Z,58.47
2019-01-20T18:55:23.485Z,58.34
2019-01-20T18:57:51.861Z,58.08
2019-01-20T19:00:35.215Z,58.00
2019-01-20T19:03:03.765Z,57.61
2019-01-20T19:05:32.220Z,57.54
2019-01-20T19:08:00.599Z,57.45
2019-01-20T19:10:28.972Z,57.44
2019-01-20T19:12:57.358Z,57.09
2019-01-20T19:15:25.799Z,57.81
2019-01-20T19:17:54.181Z,56.73
2019-01-20T19:20:24.872Z,56.07
2019-01-20T19:22:55.958Z,55.25
2019-01-20T19:25:24.668Z,53.77
2019-01-20T19:27:53.131Z,53.72
2019-01-20T19:30:30.134Z,52.95
2019-01-20T19:32:58.518Z,52.60
2019-01-20T19:35:28.309Z,52.36
2019-01-20T19:37:56.803Z,52.02
2019-01-20T19:40:25.178Z,51.33
2019-01-20T19:42:53.626Z,51.17
2019-01-20T19:45:22.459Z,50.81
2019-01-20T19:47:50.830Z,50.65
2019-01-20T19:50:19.450Z,50.44
2019-01-20T19:52:47.834Z,50.29
2019-01-20T19:55:21.521Z,50.20
2019-01-20T19:57:50.049Z,49.94
2019-01-20T20:00:26.764Z,49.84
2019-01-20T20:02:55.212Z,49.83
2019-01-20T20:05:23.739Z,49.46
2019-01-20T20:07:53.231Z,49.57
2019-01-20T20:10:24.429Z,49.51
2019-01-20T20:12:54.788Z,49.62
2019-01-20T20:15:25.059Z,49.49
2019-01-20T20:17:53.598Z,49.30
2019-01-20T20:20:22.218Z,48.95
2019-01-20T20:22:50.595Z,48.98
2019-01-20T20:25:21.379Z,48.98
2019-01-20T20:27:49.886Z,49.03
2019-01-20T20:30:24.338Z,48.84
2019-01-20T20:32:52.710Z,49.35
2019-01-20T20:35:21.087Z,49.13
2019-01-20T20:37:49.465Z,49.17
2019-01-20T20:40:19.583Z,49.28
2019-01-20T20:42:48.200Z,49.26
2019-01-20T20:45:21.914Z,48.80
2019-01-20T20:47:50.461Z,48.84
2019-01-20T20:50:19.029Z,48.78
2019-01-20T20:52:47.480Z,48.56
2019-01-20T20:55:15.936Z,48.32
2019-01-20T20:57:44.484Z,48.30
2019-01-20T21:00:30.965Z,48.32
2019-01-20T21:03:01.289Z,48.27
2019-01-20T21:05:29.674Z,48.10
2019-01-20T21:07:58.043Z,48.06
2019-01-20T21:10:26.427Z,48.02
2019-01-20T21:12:54.803Z,47.88
2019-01-20T21:15:23.178Z,48.03
2019-01-20T21:17:51.559Z,48.02
2019-01-20T21:20:22.027Z,47.85
2019-01-20T21:22:50.609Z,47.75
2019-01-20T21:25:18.993Z,47.59
2019-01-20T21:27:47.369Z,47.61
2019-01-20T21:30:18.296Z,47.47
2019-01-20T21:32:46.659Z,47.46
2019-01-20T21:35:15.882Z,47.54
2019-01-20T21:37:44.775Z,47.47
2019-01-20T21:40:15.722Z,47.45
2019-01-20T21:42:44.658Z,47.47
2019-01-20T21:45:14.476Z,47.53
2019-01-20T21:47:42.846Z,47.48
2019-01-20T21:50:14.513Z,47.36
2019-01-20T21:52:42.891Z,47.29
2019-01-20T21:55:11.410Z,47.25
2019-01-20T21:57:39.783Z,47.28
2019-01-20T22:00:11.472Z,47.20
2019-01-20T22:02:39.863Z,47.11
2019-01-20T22:05:09.897Z,47.13
2019-01-20T22:07:38.273Z,47.12
2019-01-20T22:10:20.367Z,47.02
2019-01-20T22:12:48.910Z,47.07
2019-01-20T22:15:17.620Z,47.01
2019-01-20T22:17:46.940Z,46.82
2019-01-20T22:20:20.191Z,46.93
2019-01-20T22:22:48.782Z,46.74
2019-01-20T22:25:17.156Z,46.90
2019-01-20T22:27:45.607Z,46.94
2019-01-20T22:30:24.849Z,46.74
2019-01-20T22:32:53.363Z,46.84
2019-01-20T22:35:21.830Z,46.63
2019-01-20T22:37:50.264Z,46.82
2019-01-20T22:40:19.284Z,46.78
2019-01-20T22:42:47.948Z,46.72
2019-01-20T22:45:43.080Z,46.72
2019-01-20T22:48:11.455Z,46.51
2019-01-20T22:50:39.828Z,46.51
2019-01-20T22:53:08.217Z,46.51
2019-01-20T22:55:36.589Z,46.58
2019-01-20T22:58:04.998Z,46.67
2019-01-20T23:00:43.925Z,46.51
2019-01-20T23:03:12.292Z,46.43
2019-01-20T23:05:40.665Z,46.45
2019-01-20T23:08:09.041Z,46.38
2019-01-20T23:10:37.410Z,46.38
2019-01-20T23:13:05.983Z,46.37
2019-01-20T23:15:34.379Z,46.18
2019-01-20T23:18:02.957Z,46.00
2019-01-20T23:20:31.324Z,46.31
2019-01-20T23:22:59.708Z,46.18
2019-01-20T23:25:28.070Z,46.20
2019-01-20T23:27:56.483Z,46.15
2019-01-20T23:30:24.896Z,46.14
2019-01-20T23:32:53.282Z,46.24
2019-01-20T23:35:21.653Z,46.15
2019-01-20T23:37:50.042Z,46.22
2019-01-20T23:40:18.583Z,46.25
2019-01-20T23:42:46.967Z,46.16
2019-01-20T23:45:15.605Z,46.27
2019-01-20T23:47:43.995Z,46.12
2019-01-20T23:50:14.190Z,46.34
2019-01-20T23:52:42.656Z,46.18
2019-01-20T23:55:14.235Z,46.05
2019-01-20T23:57:42.696Z,46.29
